Pagrindinis puslapis
METAR-TAF:

METAR-TAF

Oro uostai :

Payerne, Šveicarija

platuma: 46-49N, ilguma: 006-57E, Aukštis: 490 m

Dabartinis oras

Ataskaita buvo paskelbta 15 minutes, ne 02:50 UTC
Vėjas 6 kt iš Vakarų/Pietvakarių
Temperatūra 4°C
Drėgmė 87%
Slėgis 1028 hPa
Matomumas 10 km arba daugiau
Išsisklaidę debesys ne aukštis 1800 ft
Su prošvaistėmis ne aukštis 2400 ft
Su prošvaistėmis ne aukštis 5900 ft
lietus

METAR: LSMP 180250Z AUTO 25006KT 9999NDV RA SCT018 BKN024 BKN059 04/02 Q1028 RMK

Laikas: 04:05 (03:05 UTC)


TAF: trūkstamas

Orai ataskaitas ir orų prognozės (METAR, TAF).

turimą stotys yra geltonos ir raudonos taškus žemėlapyje.

Perkelti pele per norėdami pamatyti stoties vardą.

Tada spustelėkite, norėdami matyti oro stebėjimo ir prognozės.

Norėdami pakeisti žemėlapį: spustelėkite ant žalios mygtukų su juodo kryžiaus žemyn,; žalią mygtuką su brūkšneliu, jei norite nutolinti; arba žalių rodyklių gretimoms žemėlapius.


METAR-TAF: